Duxbury, Massachusetts
Current Conditions -  °F | °C
As of 3:35 AM on Saturday 20 Dec 2014 (Local Time) from KGHG Reporting Station
Overcast Overcast  
Wind Chill: 25°   Ceiling: 3400
Heat Index: 32°   Visibility: 10mi
Dew Point: 28°   Wind: 8mph
Humidity: 87%   Direction: 330°NNW
Pressure: 30.19"   Gusts: NA
Location:  42.04°N, 70.67°W
Report Text: KGHG 200835Z AUTO 33007KT 10SM OVC034 00/M02 A3019 RMK AO2
Loading
Personal Weather Stations






























Interactive Weather Map New forecast layout! Learn more

10-Day Weather Forecast

Advertisements
Track Severe Weather on mobile